createdAt,value
2023-06-07T00:06:16.078Z,4.65
2023-06-07T00:16:23.152Z,2.70
2023-06-07T00:26:31.687Z,5.82
2023-06-07T00:36:38.899Z,2.83
2023-06-07T00:46:48.432Z,2.85
2023-06-07T00:56:55.449Z,3.65
2023-06-07T01:07:04.859Z,2.80
2023-06-07T01:17:13.517Z,3.03
2023-06-07T01:27:24.027Z,2.97
2023-06-07T01:37:31.421Z,3.25
2023-06-07T01:47:41.168Z,2.33
2023-06-07T01:57:56.359Z,2.15
2023-06-07T02:08:10.179Z,2.70
2023-06-07T02:18:21.871Z,4.38
2023-06-07T02:28:34.851Z,4.55
2023-06-07T02:38:41.767Z,3.05
2023-06-07T02:48:50.889Z,3.35
2023-06-07T02:58:57.902Z,2.97
2023-06-07T03:09:10.160Z,4.13
2023-06-07T03:19:19.138Z,3.85
2023-06-07T03:29:28.588Z,4.63
2023-06-07T03:39:35.940Z,4.32
2023-06-07T03:49:46.852Z,7.03
2023-06-07T03:59:54.387Z,4.95
2023-06-07T04:10:03.412Z,2.78
2023-06-07T04:20:12.647Z,3.97
2023-06-07T04:30:22.121Z,2.10
2023-06-07T04:40:29.217Z,3.88
2023-06-07T04:50:41.073Z,2.75
2023-06-07T05:00:49.996Z,5.78
2023-06-07T05:10:59.050Z,2.75
2023-06-07T05:21:07.499Z,2.88
2023-06-07T05:31:16.271Z,2.10
2023-06-07T05:41:23.784Z,2.00
2023-06-07T05:51:33.046Z,2.00
2023-06-07T06:01:40.085Z,2.75
2023-06-07T06:11:49.776Z,1.85
2023-06-07T06:21:56.795Z,2.95
2023-06-07T06:32:05.404Z,2.03
2023-06-07T06:42:12.824Z,1.70
2023-06-07T06:52:46.036Z,1.48
2023-06-07T07:02:53.497Z,1.50
2023-06-07T07:13:02.454Z,1.55
2023-06-07T07:23:09.345Z,1.55
2023-06-07T07:33:18.129Z,1.50
2023-06-07T07:43:24.944Z,1.83
2023-06-07T07:53:35.578Z,1.20
2023-06-07T08:03:43.288Z,1.30
2023-06-07T08:13:52.209Z,1.02
2023-06-07T08:23:59.255Z,1.17
2023-06-07T08:34:07.852Z,1.10
2023-06-07T08:44:14.853Z,1.10
2023-06-07T08:54:26.530Z,1.25
2023-06-07T09:04:35.306Z,1.10
2023-06-07T09:14:44.599Z,1.10
2023-06-07T09:24:51.696Z,1.38
2023-06-07T09:35:15.704Z,0.95
2023-06-07T09:45:23.417Z,0.98
2023-06-07T09:55:33.780Z,1.02
2023-06-07T10:05:40.859Z,0.90
2023-06-07T10:15:51.036Z,1.08
2023-06-07T10:26:07.221Z,0.95
2023-06-07T10:36:16.050Z,0.98
2023-06-07T10:46:25.603Z,0.90
2023-06-07T10:56:36.218Z,1.10
2023-06-07T11:07:22.984Z,1.02
2023-06-07T11:17:56.034Z,0.85
2023-06-07T11:28:03.506Z,0.93
2023-06-07T11:38:12.088Z,1.30
2023-06-07T11:48:19.701Z,1.30
2023-06-07T11:58:29.205Z,1.40
2023-06-07T12:08:36.577Z,0.80
2023-06-07T12:18:45.916Z,0.80
2023-06-07T12:28:53.506Z,0.90
2023-06-07T12:39:03.382Z,0.88
2023-06-07T12:49:10.276Z,1.15
2023-06-07T12:59:19.474Z,1.00
2023-06-07T13:09:26.512Z,0.95
2023-06-07T13:19:35.048Z,1.10
2023-06-07T13:29:42.787Z,0.98
2023-06-07T13:39:51.475Z,0.80
2023-06-07T13:49:58.506Z,1.08
2023-06-07T14:00:08.586Z,1.73
2023-06-07T14:10:18.896Z,1.63
2023-06-07T14:20:27.479Z,2.70
2023-06-07T14:30:34.358Z,3.10
2023-06-07T14:40:43.045Z,2.45
2023-06-07T14:50:55.211Z,3.03
2023-06-07T15:01:04.414Z,6.82
2023-06-07T15:11:11.361Z,4.03
2023-06-07T15:21:20.686Z,5.63
2023-06-07T15:31:28.068Z,3.45
2023-06-07T15:41:36.722Z,2.97
2023-06-07T15:51:43.631Z,4.47
2023-06-07T16:01:53.767Z,5.07
2023-06-07T16:12:00.670Z,2.65
2023-06-07T16:22:09.575Z,6.07
2023-06-07T16:32:18.807Z,3.30
2023-06-07T16:42:28.713Z,4.10
2023-06-07T16:52:36.405Z,3.22
2023-06-07T17:02:48.176Z,2.60
2023-06-07T17:12:56.243Z,2.65
2023-06-07T17:23:10.635Z,4.65
2023-06-07T17:33:32.197Z,3.03
2023-06-07T17:43:40.989Z,2.63
2023-06-07T17:53:51.210Z,3.63
2023-06-07T18:04:00.467Z,2.60
2023-06-07T18:14:07.460Z,2.47
2023-06-07T18:24:17.411Z,2.50
2023-06-07T18:34:26.085Z,3.05
2023-06-07T18:44:36.013Z,3.50
2023-06-07T18:54:42.951Z,2.17
2023-06-07T19:04:53.264Z,2.95
2023-06-07T19:15:02.073Z,3.22
2023-06-07T19:25:12.545Z,2.28
2023-06-07T19:35:19.807Z,1.95
2023-06-07T19:45:28.610Z,2.35
2023-06-07T19:55:35.708Z,4.82
2023-06-07T20:05:46.864Z,6.00
2023-06-07T20:15:53.721Z,3.22
2023-06-07T20:26:02.328Z,4.85
2023-06-07T20:36:09.969Z,3.95
2023-06-07T20:46:18.582Z,2.53
2023-06-07T20:56:25.579Z,4.03
2023-06-07T21:06:37.905Z,3.35
2023-06-07T21:16:48.594Z,3.22
2023-06-07T21:37:48.616Z,3.72
2023-06-07T21:47:55.663Z,3.05
2023-06-07T21:58:04.256Z,3.17
2023-06-07T22:08:18.229Z,4.43
2023-06-07T22:18:33.010Z,3.05
2023-06-07T22:28:42.156Z,3.80
2023-06-07T22:38:50.896Z,2.88
2023-06-07T22:48:59.621Z,2.88
2023-06-07T22:59:12.656Z,2.88
2023-06-07T23:09:23.959Z,3.05
2023-06-07T23:19:32.619Z,2.45
2023-06-07T23:29:39.680Z,3.45
2023-06-07T23:39:48.183Z,3.33
2023-06-07T23:49:55.123Z,5.50
